Time;durP1;ratioP1;P1;durP2;ratioP2;P2;SDS_P1;SDS_P2;PMS_P1;PMS_P2;Temp;Humidity;BMP_temperature;BMP_pressure;BME280_temperature;BME280_humidity;BME280_pressure;Samples;Min_cycle;Max_cycle;Signal;HPM_P1;HPM_P2
2023/06/19 00:00:56;;;;;;;;;8.00;8.00;;;;;24.90;100.00;100362.34;6220379;22;45367;-84
2023/06/19 00:03:21;;;;;;;;;11.67;11.00;;;;;24.82;100.00;100351.88;6219748;22;47814;-83
2023/06/19 00:05:47;;;;;;;;;8.33;8.33;;;;;24.96;100.00;100378.38;6223045;22;45366;-83
2023/06/19 00:08:14;;;;;;;;;9.00;9.00;;;;;24.99;100.00;100382.78;6222653;22;45401;-84
2023/06/19 00:10:42;;;;;;;;;8.00;7.33;;;;;25.04;100.00;100343.47;6246507;22;45316;-84
2023/06/19 00:13:10;;;;;;;;;11.00;11.00;;;;;24.80;100.00;100353.78;6220167;22;47978;-83
2023/06/19 00:15:37;;;;;;;;;8.67;8.67;;;;;24.93;100.00;100357.66;6219642;22;44852;-84
2023/06/19 00:18:02;;;;;;;;;10.00;9.67;;;;;24.85;100.00;100383.50;6223074;22;45556;-84
2023/06/19 00:20:28;;;;;;;;;8.33;7.33;;;;;24.85;100.00;100387.09;6246268;22;45415;-82
2023/06/19 00:22:53;;;;;;;;;12.33;10.00;;;;;24.75;100.00;100367.63;6223821;22;46172;-82
2023/06/19 00:25:22;;;;;;;;;9.33;9.00;;;;;25.12;100.00;100403.81;6221774;22;45397;-84
2023/06/19 00:28:47;;;;;;;;;8.00;7.67;;;;;25.30;100.00;100392.97;6218757;22;45364;-83
2023/06/19 00:31:19;;;;;;;;;11.33;9.33;;;;;25.25;100.00;100395.03;6190539;23;45297;-84
2023/06/19 00:33:47;;;;;;;;;11.33;10.00;;;;;24.86;100.00;100401.56;6189300;23;47342;-84
2023/06/19 00:36:15;;;;;;;;;9.67;9.67;;;;;25.09;100.00;100398.56;6188944;23;45613;-84
2023/06/19 00:38:42;;;;;;;;;12.00;11.00;;;;;24.93;100.00;100411.19;6188866;23;45434;-83
2023/06/19 00:44:28;;;;;;;;;12.00;11.00;;;;;24.94;100.00;100419.28;6193610;23;45607;-83
2023/06/19 00:46:58;;;;;;;;;10.00;10.00;;;;;25.27;100.00;100426.69;6217347;22;45642;-83
2023/06/19 00:49:25;;;;;;;;;9.00;9.00;;;;;25.02;100.00;100428.88;6191894;23;45324;-83
2023/06/19 00:51:51;;;;;;;;;13.00;12.00;;;;;24.89;100.00;100442.22;6193684;23;45436;-83
2023/06/19 00:54:20;;;;;;;;;10.33;10.33;;;;;24.83;100.00;100437.97;6191217;23;47561;-83
2023/06/19 00:56:50;;;;;;;;;10.33;10.33;;;;;25.08;100.00;100428.56;6192204;23;45380;-83
2023/06/19 00:59:18;;;;;;;;;12.00;12.00;;;;;25.02;100.00;100437.91;6190820;23;45517;-84
2023/06/19 01:01:44;;;;;;;;;11.33;11.33;;;;;24.83;100.00;100431.66;6193604;23;45276;-83
2023/06/19 01:04:10;;;;;;;;;10.67;10.00;;;;;24.71;100.00;100449.47;6192300;23;47026;-84
2023/06/19 01:06:58;;;;;;;;;12.67;10.00;;;;;25.01;100.00;100441.59;6194290;23;45455;-83
2023/06/19 01:09:30;;;;;;;;;11.00;8.00;;;;;24.95;100.00;100447.34;6191513;23;45427;-84
2023/06/19 01:12:04;;;;;;;;;11.00;11.00;;;;;24.83;100.00;100439.81;6192442;23;45796;-83
2023/06/19 01:14:54;;;;;;;;;12.67;9.33;;;;;24.81;100.00;100445.31;6196584;22;47291;-85
2023/06/19 01:17:21;;;;;;;;;11.67;10.33;;;;;24.55;100.00;100454.75;6222866;22;45371;-84
2023/06/19 01:19:47;;;;;;;;;12.00;11.00;;;;;24.49;100.00;100449.59;6196150;22;45625;-83
2023/06/19 01:22:24;;;;;;;;;14.00;11.00;;;;;24.72;100.00;100453.91;6196241;22;45388;-84
2023/06/19 01:24:50;;;;;;;;;13.33;12.33;;;;;24.42;100.00;100457.16;6195618;22;47100;-84
2023/06/19 01:27:15;;;;;;;;;11.00;11.00;;;;;24.48;100.00;100459.59;6195550;22;45393;-83
2023/06/19 01:29:40;;;;;;;;;13.33;12.67;;;;;24.41;100.00;100452.66;6225767;22;45074;-84
2023/06/19 01:32:15;;;;;;;;;12.33;12.33;;;;;24.76;100.00;100447.38;6197144;22;45844;-84
2023/06/19 01:34:41;;;;;;;;;13.00;12.00;;;;;24.43;100.00;100449.88;6196835;22;48915;-85
2023/06/19 01:37:11;;;;;;;;;12.00;11.00;;;;;24.68;100.00;100441.44;6223741;22;45838;-85
2023/06/19 01:39:40;;;;;;;;;12.67;12.67;;;;;24.48;100.00;100443.28;6224317;22;45336;-84
2023/06/19 01:42:09;;;;;;;;;14.33;14.33;;;;;24.57;100.00;100444.69;6221135;22;45273;-84
2023/06/19 01:44:35;;;;;;;;;11.00;9.33;;;;;24.64;100.00;100456.13;6193938;22;46616;-84
2023/06/19 01:47:10;;;;;;;;;13.33;12.00;;;;;24.62;100.00;100448.09;6221457;22;45348;-85
2023/06/19 01:49:37;;;;;;;;;14.33;12.00;;;;;24.35;100.00;100447.53;6195271;22;45385;-85
2023/06/19 01:52:03;;;;;;;;;13.67;13.00;;;;;24.34;100.00;100462.09;6221268;22;45623;-84
2023/06/19 01:54:28;;;;;;;;;16.00;14.33;;;;;24.28;100.00;100456.91;6217377;22;46938;-84
2023/06/19 01:57:34;;;;;;;;;12.33;12.33;;;;;24.73;100.00;100469.31;6192625;22;45212;-83
2023/06/19 01:59:59;;;;;;;;;13.67;12.67;;;;;24.23;100.00;100457.16;6222291;22;45661;-83
2023/06/19 02:02:27;;;;;;;;;12.00;12.00;;;;;24.27;100.00;100474.19;6224204;22;45910;-83
2023/06/19 02:04:53;;;;;;;;;15.67;15.00;;;;;24.17;100.00;100461.03;6196143;22;48148;-83
2023/06/19 02:07:18;;;;;;;;;16.33;16.33;;;;;24.16;100.00;100459.28;6221267;22;45391;-84
2023/06/19 02:09:45;;;;;;;;;11.33;11.33;;;;;24.39;100.00;100470.88;6194789;22;45388;-84
2023/06/19 02:12:10;;;;;;;;;13.33;13.33;;;;;24.12;100.00;100471.25;6222107;22;45731;-84
2023/06/19 02:14:36;;;;;;;;;19.33;16.00;;;;;24.06;100.00;100466.09;6194645;22;47962;-84
2023/06/19 02:17:01;;;;;;;;;15.33;13.00;;;;;24.03;100.00;100471.66;6220470;22;45331;-83
2023/06/19 02:19:26;;;;;;;;;15.00;15.00;;;;;24.01;100.00;100465.41;6194837;22;45824;-83
2023/06/19 02:21:52;;;;;;;;;17.00;16.67;;;;;23.98;100.00;100462.84;6195822;22;45273;-84
2023/06/19 02:24:17;;;;;;;;;16.67;16.67;;;;;23.99;100.00;100456.44;6222446;22;46197;-84
2023/06/19 02:26:43;;;;;;;;;19.67;19.67;;;;;24.05;100.00;100467.03;6223459;22;45295;-84
2023/06/19 02:29:09;;;;;;;;;20.67;16.33;;;;;24.02;100.00;100456.31;6196770;22;45642;-84
2023/06/19 02:31:35;;;;;;;;;19.00;18.00;;;;;24.02;100.00;100461.75;6221381;22;45376;-84
2023/06/19 02:34:03;;;;;;;;;17.33;17.33;;;;;24.05;100.00;100456.16;6221113;22;45461;-84
2023/06/19 02:36:29;;;;;;;;;19.33;15.67;;;;;24.06;100.00;100470.66;6221153;22;45380;-84
2023/06/19 02:38:55;;;;;;;;;18.00;18.00;;;;;24.04;100.00;100469.84;6191009;22;45363;-84
2023/06/19 02:41:20;;;;;;;;;17.00;16.33;;;;;24.03;100.00;100468.94;6195941;22;45455;-84
2023/06/19 02:43:46;;;;;;;;;15.33;15.00;;;;;23.98;100.00;100461.97;6222123;22;46191;-84
2023/06/19 02:46:12;;;;;;;;;18.67;15.33;;;;;23.94;100.00;100470.25;6193474;22;45344;-85
2023/06/19 02:48:38;;;;;;;;;13.00;13.00;;;;;23.99;100.00;100480.03;6222310;22;45311;-84
2023/06/19 02:51:03;;;;;;;;;14.67;13.00;;;;;23.91;100.00;100477.66;6195136;22;45325;-86
2023/06/19 02:53:29;;;;;;;;;16.33;14.33;;;;;24.03;100.00;100482.53;6194373;22;47549;-82
2023/06/19 02:55:54;;;;;;;;;17.00;14.00;;;;;23.96;100.00;100483.78;6221574;22;44896;-84
2023/06/19 02:58:20;;;;;;;;;13.33;13.33;;;;;23.94;100.00;100485.69;6194380;22;45893;-84
2023/06/19 03:00:46;;;;;;;;;18.00;16.33;;;;;23.99;100.00;100480.03;6222689;22;45315;-83
2023/06/19 03:03:12;;;;;;;;;19.33;16.33;;;;;23.80;100.00;100467.28;6222065;22;46382;-83
2023/06/19 03:05:38;;;;;;;;;18.33;18.33;;;;;24.10;100.00;100470.44;6220980;22;45481;-83
2023/06/19 03:08:04;;;;;;;;;18.67;17.33;;;;;23.81;100.00;100469.03;6222237;22;45464;-84
2023/06/19 03:10:30;;;;;;;;;18.00;17.00;;;;;23.86;100.00;100471.56;6194280;22;45371;-83
2023/06/19 03:12:58;;;;;;;;;17.00;17.00;;;;;23.90;100.00;100467.75;6195028;22;47525;-84
2023/06/19 03:15:23;;;;;;;;;13.33;13.33;;;;;23.94;100.00;100459.38;6193109;22;45838;-85
2023/06/19 03:17:49;;;;;;;;;17.00;14.33;;;;;24.00;100.00;100471.81;6218296;22;45246;-84
2023/06/19 03:20:14;;;;;;;;;18.00;14.00;;;;;23.94;100.00;100466.66;6221616;22;45356;-84
2023/06/19 03:22:42;;;;;;;;;13.33;13.33;;;;;24.19;100.00;100479.09;6194159;22;46995;-84
2023/06/19 03:25:08;;;;;;;;;17.00;15.33;;;;;23.86;100.00;100477.00;6193528;22;45727;-83
2023/06/19 03:27:34;;;;;;;;;17.50;16.00;;;;;23.88;100.00;100477.81;6194974;22;45558;-84
2023/06/19 03:30:00;;;;;;;;;16.33;16.33;;;;;23.84;100.00;100468.03;6223922;22;45275;-83
2023/06/19 03:32:28;;;;;;;;;18.67;18.67;;;;;24.07;100.00;100472.41;6194131;22;47228;-84
2023/06/19 03:34:53;;;;;;;;;12.67;12.67;;;;;23.85;100.00;100480.66;6192884;22;45296;-85
2023/06/19 03:37:19;;;;;;;;;17.00;15.33;;;;;23.87;100.00;100484.19;6220531;22;45800;-85
2023/06/19 03:39:48;;;;;;;;;18.67;17.67;;;;;24.09;100.00;100489.50;6220184;22;45616;-85
2023/06/19 03:42:13;;;;;;;;;17.33;16.67;;;;;23.85;100.00;100486.09;6193251;22;47180;-85
2023/06/19 03:44:40;;;;;;;;;21.00;18.00;;;;;23.88;100.00;100494.09;6219787;22;45529;-84
2023/06/19 03:47:05;;;;;;;;;17.00;17.00;;;;;23.80;100.00;100485.44;6221939;22;45675;-84
2023/06/19 03:49:34;;;;;;;;;15.33;15.00;;;;;23.92;100.00;100493.00;6223151;22;45245;-84
2023/06/19 03:52:01;;;;;;;;;18.67;18.67;;;;;23.98;100.00;100484.59;6193790;22;47965;-85
2023/06/19 03:54:27;;;;;;;;;17.33;15.33;;;;;23.78;100.00;100496.34;6191762;22;45392;-85
2023/06/19 03:56:52;;;;;;;;;12.67;10.67;;;;;23.85;100.00;100494.22;6218257;22;46203;-84
2023/06/19 03:59:18;;;;;;;;;15.33;15.33;;;;;23.82;100.00;100495.25;6219949;22;45373;-85
2023/06/19 04:01:43;;;;;;;;;14.67;14.33;;;;;23.92;100.00;100498.44;6219405;22;45462;-84
2023/06/19 04:04:10;;;;;;;;;18.67;17.00;;;;;24.16;100.00;100497.31;6191245;22;45586;-84
2023/06/19 04:06:35;;;;;;;;;18.33;16.67;;;;;23.93;100.00;100486.63;6192518;22;45632;-85
2023/06/19 04:09:01;;;;;;;;;17.33;16.00;;;;;23.98;100.00;100490.03;6194234;22;45341;-84
2023/06/19 04:11:26;;;;;;;;;14.00;14.00;;;;;24.00;100.00;100479.97;6195229;22;47013;-84
2023/06/19 04:13:51;;;;;;;;;16.00;16.00;;;;;24.01;100.00;100492.56;6194505;22;45292;-83
2023/06/19 04:16:17;;;;;;;;;17.33;17.33;;;;;24.04;100.00;100486.16;6194546;22;45332;-84
2023/06/19 04:18:42;;;;;;;;;24.67;20.67;;;;;24.22;100.00;100497.97;6221962;22;45294;-84
2023/06/19 04:21:08;;;;;;;;;18.00;18.00;;;;;24.17;100.00;100493.63;6222149;22;45205;-84
2023/06/19 04:23:33;;;;;;;;;21.33;19.33;;;;;24.24;100.00;100499.69;6221497;22;45429;-84
2023/06/19 04:25:58;;;;;;;;;16.33;15.67;;;;;24.33;100.00;100503.78;6224706;22;45354;-84
2023/06/19 04:28:24;;;;;;;;;19.33;18.00;;;;;24.34;100.00;100520.03;6197634;22;45522;-84
2023/06/19 04:30:49;;;;;;;;;20.00;19.67;;;;;24.20;100.00;100506.22;6223627;22;45370;-84
2023/06/19 04:33:15;;;;;;;;;18.33;15.67;;;;;24.19;100.00;100518.03;6223848;22;45418;-84
2023/06/19 04:35:40;;;;;;;;;18.33;16.00;;;;;24.36;100.00;100530.84;6194960;22;45233;-84
2023/06/19 04:38:07;;;;;;;;;23.33;21.33;;;;;24.45;100.00;100541.28;6223097;22;45301;-85
2023/06/19 04:40:33;;;;;;;;;18.33;14.00;;;;;24.42;100.00;100538.72;6196270;22;46722;-84
2023/06/19 04:43:00;;;;;;;;;20.67;19.67;;;;;24.17;100.00;100537.09;6222429;22;45503;-84
2023/06/19 04:45:26;;;;;;;;;19.67;19.67;;;;;24.24;100.00;100536.81;6224153;22;45256;-84
2023/06/19 04:47:51;;;;;;;;;18.67;18.33;;;;;24.17;100.00;100520.81;6197990;22;45372;-84
2023/06/19 04:50:16;;;;;;;;;21.33;20.00;;;;;24.11;100.00;100529.25;6220318;22;45256;-84
2023/06/19 04:52:50;;;;;;;;;19.33;19.33;;;;;24.44;100.00;100534.09;6194921;22;56734;-84
2023/06/19 04:55:16;;;;;;;;;19.33;17.33;;;;;24.34;100.00;100535.47;6196296;22;44751;-84
2023/06/19 04:57:41;;;;;;;;;19.33;19.33;;;;;24.38;100.00;100533.47;6224724;22;45435;-84
2023/06/19 05:00:09;;;;;;;;;19.00;18.00;;;;;24.57;100.00;100544.41;6223346;22;45634;-83
2023/06/19 05:03:04;;;;;;;;;16.00;16.00;;;;;24.79;100.00;100531.56;6223611;22;45542;-85
2023/06/19 05:05:32;;;;;;;;;15.33;15.33;;;;;24.38;100.00;100518.06;6164031;23;45372;-84
2023/06/19 05:08:04;;;;;;;;;17.00;17.00;;;;;24.75;100.00;100510.91;6190008;23;45504;-84
2023/06/19 05:10:29;;;;;;;;;14.67;14.67;;;;;24.64;100.00;100544.06;6164072;23;47211;-83
2023/06/19 05:12:58;;;;;;;;;21.00;19.33;;;;;24.67;100.00;100545.75;6189514;23;45721;-84
2023/06/19 05:15:42;;;;;;;;;;;;;;;;;;;;;
2023/06/19 05:18:10;;;;;;;;;19.00;18.50;;;;;24.54;100.00;100521.84;6190070;23;64829;-84
2023/06/19 05:20:46;;;;;;;;;18.67;17.33;;;;;24.47;100.00;100519.47;6191450;23;45380;-83
2023/06/19 05:23:17;;;;;;;;;19.33;19.33;;;;;24.83;100.00;100511.41;6189273;23;45285;-83
2023/06/19 05:25:43;;;;;;;;;20.00;20.00;;;;;24.44;100.00;100504.19;6189045;23;45834;-84
2023/06/19 05:28:21;;;;;;;;;21.00;21.00;;;;;24.92;100.00;100535.41;6161223;23;45495;-84
2023/06/19 05:30:53;;;;;;;;;20.00;20.00;;;;;25.03;100.00;100525.88;6209210;22;45463;-84
2023/06/19 05:33:23;;;;;;;;;23.00;21.33;;;;;24.92;100.00;100527.25;6192302;22;45542;-84
2023/06/19 05:36:04;;;;;;;;;23.67;22.33;;;;;24.91;100.00;100501.03;6218639;22;45343;-84
2023/06/19 05:38:30;;;;;;;;;24.33;22.67;;;;;24.81;100.00;100526.03;6220250;22;45436;-84
2023/06/19 05:40:59;;;;;;;;;20.67;17.67;;;;;25.18;100.00;100541.41;6197149;22;47462;-84
2023/06/19 05:43:28;;;;;;;;;23.00;20.00;;;;;25.22;100.00;100536.75;6225519;22;45456;-84
2023/06/19 05:45:58;;;;;;;;;17.33;17.33;;;;;25.16;100.00;100506.09;6253112;22;45444;-84
2023/06/19 05:48:27;;;;;;;;;17.33;17.00;;;;;25.00;100.00;100494.22;6253991;22;45617;-84
2023/06/19 05:51:01;;;;;;;;;21.33;21.33;;;;;25.65;100.00;100501.84;6226577;22;47301;-87
2023/06/19 05:53:27;;;;;;;;;21.67;20.00;;;;;25.53;100.00;100487.94;6226826;22;45654;-86
2023/06/19 05:56:00;;;;;;;;;22.67;21.00;;;;;25.95;100.00;100477.59;6227850;22;45348;-87
2023/06/19 05:58:34;;;;;;;;;21.67;18.00;;;;;26.28;100.00;100501.25;6253994;22;45411;-87
2023/06/19 06:01:18;;;;;;;;;;;;;;;;;;;;;
2023/06/19 06:03:46;;;;;;;;;23.33;19.67;;;;;26.39;100.00;100498.78;6254920;22;72040;-87
2023/06/19 06:06:14;;;;;;;;;18.00;17.33;;;;;26.20;100.00;100492.59;6228789;22;44772;-86
2023/06/19 06:08:40;;;;;;;;;16.00;16.00;;;;;26.18;100.00;100494.50;6230298;22;45179;-86
2023/06/19 06:11:06;;;;;;;;;17.67;17.67;;;;;26.10;100.00;100482.22;6227523;22;47962;-87
2023/06/19 06:13:31;;;;;;;;;18.00;17.00;;;;;26.32;100.00;100521.94;6256033;22;45336;-87
2023/06/19 06:16:05;;;;;;;;;19.67;17.67;;;;;26.62;100.00;100526.66;6250313;22;45726;-87
2023/06/19 06:18:33;;;;;;;;;18.33;17.33;;;;;26.29;100.00;100525.69;6253487;22;45679;-87
2023/06/19 06:21:02;;;;;;;;;18.00;18.00;;;;;26.41;100.00;100528.72;6226082;22;47172;-86
2023/06/19 06:23:30;;;;;;;;;17.00;15.67;;;;;26.62;100.00;100513.00;6251529;22;45422;-86
2023/06/19 06:26:01;;;;;;;;;18.67;16.67;;;;;26.63;100.00;100496.56;6225548;22;45349;-86
2023/06/19 06:28:32;;;;;;;;;19.00;17.67;;;;;27.08;100.00;100519.44;6228346;22;45363;-86
2023/06/19 06:30:58;;;;;;;;;20.00;17.00;;;;;27.12;100.00;100536.50;6222674;22;46987;-84
2023/06/19 06:33:33;;;;;;;;;19.00;17.00;;;;;27.63;100.00;100530.81;6223080;22;45339;-85
2023/06/19 06:35:59;;;;;;;;;17.00;17.00;;;;;27.58;100.00;100517.44;6225589;22;45326;-86
2023/06/19 06:38:31;;;;;;;;;20.33;18.00;;;;;27.68;100.00;100521.38;6221357;22;45461;-85
2023/06/19 06:40:57;;;;;;;;;19.33;19.33;;;;;27.64;100.00;100558.03;6224260;22;45713;-86
2023/06/19 06:43:43;;;;;;;;;18.67;16.00;;;;;28.19;100.00;100561.13;6222432;22;45323;-85
2023/06/19 06:46:10;;;;;;;;;18.00;18.00;;;;;27.98;100.00;100564.22;6221544;22;45275;-85
2023/06/19 06:48:36;;;;;;;;;22.00;21.00;;;;;28.10;100.00;100563.47;6224289;22;45418;-84
2023/06/19 06:51:04;;;;;;;;;22.00;19.00;;;;;28.16;100.00;100551.28;6225582;22;48026;-86
2023/06/19 06:53:42;;;;;;;;;26.00;23.67;;;;;28.08;100.00;100559.09;6225468;22;45324;-86
2023/06/19 06:56:08;;;;;;;;;16.00;16.00;;;;;27.94;100.00;100557.19;6228987;22;45273;-86
2023/06/19 06:58:33;;;;;;;;;21.00;21.00;;;;;27.97;100.00;100578.84;6229840;22;45330;-85
2023/06/19 07:07:47;;;;;;;;;19.67;19.33;;;;;28.29;100.00;100584.19;6235673;22;45374;-86
2023/06/19 07:10:20;;;;;;;;;22.00;20.00;;;;;28.30;100.00;100596.91;6227579;22;45319;-86
2023/06/19 07:12:55;;;;;;;;;19.00;19.00;;;;;28.02;100.00;100595.88;6227570;22;46820;-87
2023/06/19 07:15:23;;;;;;;;;22.33;22.00;;;;;27.65;100.00;100594.44;6217939;22;44792;-85
2023/06/19 07:18:16;;;;;;;;;16.33;15.67;;;;;27.99;100.00;100586.97;6227339;22;45046;-87
2023/06/19 07:20:48;;;;;;;;;21.67;19.33;;;;;27.58;100.00;100550.22;6228611;22;45189;-88
2023/06/19 07:23:27;;;;;;;;;16.33;16.33;;;;;28.22;100.00;100569.13;6228541;22;45097;-87
2023/06/19 07:29:19;;;;;;;;;17.33;17.33;;;;;28.45;100.00;100565.84;6232003;22;45309;-88
2023/06/19 07:32:28;;;;;;;;;;;;;;;;;;;;;
2023/06/19 07:35:45;;;;;;;;;17.00;17.00;;;;;28.49;100.00;100570.13;6230090;22;74661;-87
2023/06/19 07:39:14;;;;;;;;;;;;;;;;;;;;;
2023/06/19 08:16:22;;;;;;;;;22.00;21.00;;;;;29.29;100.00;100570.47;6172511;22;46534;-85
2023/06/19 08:22:56;;;;;;;;;26.67;25.33;;;;;29.57;100.00;100575.94;6237331;22;45324;-87
2023/06/19 08:29:55;;;;;;;;;21.00;21.00;;;;;29.50;100.00;100559.03;6229190;22;45430;-86
2023/06/19 08:32:31;;;;;;;;;20.33;18.67;;;;;29.77;100.00;100569.13;6079814;23;45329;-86
2023/06/19 08:34:58;;;;;;;;;19.00;18.33;;;;;29.69;100.00;100578.72;6166144;23;45416;-86
2023/06/19 08:37:33;;;;;;;;;20.00;20.00;;;;;29.79;100.00;100583.59;6191121;22;45445;-87
2023/06/19 08:46:45;;;;;;;;;22.00;20.33;;;;;29.91;100.00;100558.97;6165304;23;45328;-87
2023/06/19 09:27:59;;;;;;;;;13.33;12.00;;;;;31.03;100.00;100547.28;6001753;23;45441;-85
2023/06/19 09:32:08;;;;;;;;;11.67;11.00;;;;;31.56;100.00;100557.09;6020936;23;45450;-85
2023/06/19 09:34:49;;;;;;;;;10.33;10.00;;;;;31.55;100.00;100556.22;6001418;23;44834;-87
2023/06/19 09:38:02;;;;;;;;;12.00;12.00;;;;;31.52;100.00;100550.97;5999199;23;45289;-88
2023/06/19 09:40:38;;;;;;;;;10.33;10.33;;;;;31.05;100.00;100544.44;5974441;23;45801;-86
2023/06/19 09:43:12;;;;;;;;;10.67;10.33;;;;;31.17;100.00;100549.00;6021024;23;46478;-86
2023/06/19 11:34:16;;;;;;;;;10.00;10.00;;;;;33.74;70.73;100495.25;6165560;23;45370;-86
2023/06/19 15:07:34;;;;;;;;;12.00;11.33;;;;;31.51;64.31;100367.81;6146073;22;45294;-87
2023/06/19 16:21:27;;;;;;;;;16.33;16.33;;;;;31.53;57.76;100287.94;6159790;22;46596;-84
2023/06/19 16:24:09;;;;;;;;;18.00;18.00;;;;;31.25;59.80;100295.66;6160378;23;45353;-83
2023/06/19 16:27:08;;;;;;;;;18.00;18.00;;;;;31.22;58.27;100296.75;6179683;23;45247;-84
2023/06/19 16:30:32;;;;;;;;;13.00;13.00;;;;;30.74;57.55;100263.88;6137614;23;46952;-85
2023/06/19 16:33:35;;;;;;;;;20.00;17.67;;;;;30.86;56.91;100287.66;6114893;23;44793;-85
2023/06/19 16:36:23;;;;;;;;;;;;;;;;;;;;;
2023/06/19 16:38:54;;;;;;;;;15.00;15.00;;;;;30.56;60.68;100277.19;6164640;23;65751;-85
2023/06/19 16:41:31;;;;;;;;;16.00;15.67;;;;;30.81;62.99;100248.69;6164629;23;46174;-84
2023/06/19 16:43:57;;;;;;;;;18.33;18.33;;;;;30.94;62.04;100250.50;6162009;23;45432;-85
2023/06/19 16:46:24;;;;;;;;;16.67;16.67;;;;;31.33;61.31;100254.69;6164742;23;45336;-85
2023/06/19 16:48:49;;;;;;;;;20.67;17.00;;;;;31.22;63.03;100244.56;6164778;23;45423;-85
2023/06/19 16:51:15;;;;;;;;;17.67;17.67;;;;;31.56;58.91;100239.09;6160003;23;46499;-85
2023/06/19 16:53:40;;;;;;;;;20.00;17.67;;;;;31.92;53.91;100270.06;6161351;23;45451;-84
2023/06/19 16:56:06;;;;;;;;;14.67;14.67;;;;;32.06;56.50;100260.69;6161676;23;45393;-84
2023/06/19 17:01:53;;;;;;;;;12.33;12.33;;;;;34.38;48.17;100245.72;6161817;23;44805;-84
2023/06/19 17:04:20;;;;;;;;;16.33;15.00;;;;;36.10;49.47;100249.34;6158898;23;45304;-84
2023/06/19 17:06:45;;;;;;;;;13.00;13.00;;;;;36.26;51.48;100257.88;6161138;23;45301;-84
2023/06/19 17:09:11;;;;;;;;;16.00;16.00;;;;;35.45;51.05;100247.50;6162396;23;45280;-84
2023/06/19 17:11:37;;;;;;;;;12.33;12.00;;;;;34.86;48.37;100239.34;6162338;23;47912;-85
2023/06/19 17:14:03;;;;;;;;;15.33;12.33;;;;;33.93;51.39;100243.41;6163501;23;45428;-85
2023/06/19 17:16:29;;;;;;;;;12.33;12.33;;;;;33.30;49.82;100237.22;6158771;23;45396;-84
2023/06/19 17:18:54;;;;;;;;;13.00;13.00;;;;;32.83;52.22;100241.25;6137303;23;45271;-84
2023/06/19 17:21:20;;;;;;;;;16.00;16.00;;;;;32.56;54.47;100238.16;6135916;23;47130;-85
2023/06/19 17:23:46;;;;;;;;;15.00;15.00;;;;;32.56;55.38;100233.53;6182789;23;45717;-85
2023/06/19 17:26:12;;;;;;;;;13.00;13.00;;;;;32.20;53.68;100234.78;6167566;23;45486;-84
2023/06/19 17:28:37;;;;;;;;;14.33;14.00;;;;;32.08;54.42;100237.56;6167042;23;45559;-84
2023/06/19 17:31:03;;;;;;;;;12.00;12.00;;;;;31.92;56.43;100237.06;6193957;23;46527;-84
2023/06/19 17:33:28;;;;;;;;;13.00;13.00;;;;;31.77;54.69;100252.06;6195184;23;45273;-83
2023/06/19 17:35:55;;;;;;;;;16.00;14.67;;;;;31.69;54.58;100250.84;6168794;23;44947;-84
2023/06/19 17:38:21;;;;;;;;;13.00;13.00;;;;;31.28;57.89;100252.31;6193721;23;45730;-85
2023/06/19 17:40:46;;;;;;;;;12.00;12.00;;;;;31.14;58.46;100262.66;6169224;23;47031;-85
2023/06/19 17:43:12;;;;;;;;;12.50;12.50;;;;;30.99;59.77;100256.53;6194849;23;45392;-84
2023/06/19 17:45:37;;;;;;;;;14.00;13.67;;;;;30.87;58.33;100261.94;6167772;23;45287;-83
2023/06/19 17:48:05;;;;;;;;;13.33;13.33;;;;;30.92;61.26;100249.75;6194104;23;45774;-84
2023/06/19 17:50:31;;;;;;;;;11.33;11.33;;;;;30.59;57.08;100263.22;6169298;23;48225;-84
2023/06/19 17:52:57;;;;;;;;;12.00;12.00;;;;;30.36;58.74;100266.84;6170211;23;45667;-84
2023/06/19 17:55:22;;;;;;;;;17.00;15.00;;;;;30.23;59.14;100264.16;6194841;23;44659;-84
2023/06/19 17:57:47;;;;;;;;;12.33;11.33;;;;;30.15;59.67;100272.94;6197317;23;45373;-84
2023/06/19 18:00:13;;;;;;;;;11.00;10.00;;;;;30.02;60.50;100272.16;6193299;23;47091;-85
2023/06/19 18:02:39;;;;;;;;;10.00;10.00;;;;;29.85;57.72;100282.47;6194848;23;45386;-84
2023/06/19 18:05:04;;;;;;;;;11.67;11.67;;;;;29.81;59.78;100280.94;6195833;23;45286;-85
2023/06/19 18:07:30;;;;;;;;;14.33;14.00;;;;;29.76;60.89;100288.66;6167617;23;45347;-85
2023/06/19 18:09:56;;;;;;;;;11.00;9.67;;;;;29.65;59.30;100283.94;6195070;23;45354;-85
2023/06/19 18:12:22;;;;;;;;;13.00;12.33;;;;;29.62;61.49;100286.03;6167153;23;45340;-85
2023/06/19 18:14:48;;;;;;;;;11.00;11.00;;;;;29.59;59.85;100278.00;6194349;23;45429;-85
2023/06/19 18:17:13;;;;;;;;;12.67;12.67;;;;;29.54;61.48;100286.56;6167449;23;45470;-84
2023/06/19 18:19:39;;;;;;;;;12.00;12.00;;;;;29.57;61.76;100283.63;6193953;23;45399;-84
2023/06/19 18:22:05;;;;;;;;;13.00;12.67;;;;;29.51;61.98;100278.56;6192389;23;45424;-85
2023/06/19 18:24:30;;;;;;;;;13.00;13.00;;;;;29.46;59.95;100276.16;6163686;23;44657;-84
2023/06/19 18:26:56;;;;;;;;;13.67;13.67;;;;;29.40;62.29;100282.09;6163204;23;45706;-86
2023/06/19 18:29:23;;;;;;;;;13.67;13.67;;;;;29.38;63.29;100283.19;6162210;23;46087;-83
2023/06/19 18:31:49;;;;;;;;;15.33;14.33;;;;;29.31;63.18;100275.41;6162834;23;45268;-83
2023/06/19 18:34:14;;;;;;;;;13.67;13.67;;;;;29.22;62.56;100273.31;6164047;23;45420;-84
2023/06/19 18:36:40;;;;;;;;;15.33;15.00;;;;;29.21;61.98;100276.16;6162095;23;45496;-83
2023/06/19 18:39:05;;;;;;;;;16.67;15.00;;;;;29.18;63.26;100273.66;6164148;23;45953;-84
2023/06/19 18:41:32;;;;;;;;;12.67;12.67;;;;;29.09;62.59;100270.56;6137652;23;45363;-85
2023/06/19 18:43:57;;;;;;;;;12.33;12.33;;;;;29.06;64.59;100272.63;6160916;23;45344;-83
2023/06/19 18:46:25;;;;;;;;;12.67;12.67;;;;;29.02;64.79;100277.44;6163065;23;45338;-83
2023/06/19 18:48:51;;;;;;;;;13.33;13.00;;;;;28.97;65.08;100271.44;6162502;23;46547;-84
2023/06/19 18:51:16;;;;;;;;;17.00;15.67;;;;;28.90;63.08;100273.72;6163875;23;45398;-84
2023/06/19 18:53:42;;;;;;;;;16.00;14.00;;;;;28.83;64.81;100272.38;6160573;23;46033;-83
2023/06/19 18:56:08;;;;;;;;;15.67;15.67;;;;;28.86;65.39;100277.63;6161580;23;45313;-84
2023/06/19 18:58:33;;;;;;;;;14.33;13.67;;;;;28.69;65.83;100277.94;6160971;23;46868;-83
2023/06/19 19:00:59;;;;;;;;;15.00;13.67;;;;;28.71;67.55;100276.84;6160728;23;45470;-83
2023/06/19 19:03:24;;;;;;;;;16.00;16.00;;;;;28.67;67.54;100267.09;6161086;23;46003;-84
2023/06/19 19:05:50;;;;;;;;;17.00;15.33;;;;;28.63;67.61;100267.44;6137217;23;45409;-83
2023/06/19 19:08:15;;;;;;;;;18.00;16.00;;;;;28.58;65.98;100272.31;6164434;23;45292;-84
2023/06/19 19:10:41;;;;;;;;;14.67;14.00;;;;;28.60;67.70;100270.34;6161891;23;45486;-84
2023/06/19 19:13:07;;;;;;;;;15.33;15.33;;;;;28.48;67.55;100272.94;6139465;23;45389;-85
2023/06/19 19:15:34;;;;;;;;;16.67;15.67;;;;;28.50;68.28;100265.53;6164789;23;45352;-84
2023/06/19 19:17:59;;;;;;;;;18.67;18.67;;;;;28.44;68.79;100267.75;6162070;23;46783;-84
2023/06/19 19:20:25;;;;;;;;;18.00;17.00;;;;;28.40;68.22;100275.31;6162719;23;45328;-84
2023/06/19 19:22:50;;;;;;;;;15.00;15.00;;;;;28.29;69.83;100278.75;6172103;23;45744;-84
2023/06/19 19:25:16;;;;;;;;;15.33;15.33;;;;;28.24;69.93;100280.94;6194463;23;44758;-84
2023/06/19 19:27:41;;;;;;;;;16.33;15.33;;;;;28.21;69.87;100283.00;6192655;22;46881;-84
2023/06/19 19:30:07;;;;;;;;;17.00;15.00;;;;;28.16;71.52;100288.78;6192255;23;45265;-84
2023/06/19 19:32:32;;;;;;;;;16.00;16.00;;;;;28.05;70.11;100286.75;6164157;23;45359;-84
2023/06/19 19:34:58;;;;;;;;;15.00;14.00;;;;;28.01;71.13;100290.66;6191469;23;45328;-84
2023/06/19 19:37:25;;;;;;;;;19.33;17.00;;;;;27.99;72.06;100284.41;6191451;23;45338;-83
2023/06/19 19:39:53;;;;;;;;;15.33;15.33;;;;;27.97;72.75;100289.09;6191268;22;45479;-83